VOZ164 YMHB-YBAS
Flight info
| Callsign | VOZ164 |
|---|---|
| Flight time | 3h 15m |
| Altitude | 36000 |
| Route | LATUM2 LATUM H111 LT H215 ONAGI W562 MB W661 ML H164 LEC A461 IDANU |
| Aircraft | B38M/M-SDE1FGHILORVWXY/S |
Departure
| Time | 2026-05-09 11:02 |
|---|---|
| Airport | Hobart International Airport (YMHB) |
Arrival
| Time | 2026-05-09 14:18 |
|---|---|
| Airport | Alice Springs Airport (YBAS) |
| Time | Latitude | Longitude | Altitude | Speed | Heading |
|---|---|---|---|---|---|
| 2026-05-09 10:38 | -42.83677 | 147.50630 | 24 ft | 0 kts | 225° |
| 2026-05-09 10:39 | -42.83674 | 147.50634 | 21 ft | 3 kts | 225° |
| 2026-05-09 10:39 | -42.83660 | 147.50653 | 22 ft | 3 kts | 225° |
| 2026-05-09 10:39 | -42.83649 | 147.50669 | 21 ft | 1 kts | 225° |
| 2026-05-09 10:40 | -42.83648 | 147.50669 | 21 ft | 0 kts | 225° |
| 2026-05-09 10:44 | -42.83650 | 147.50668 | 21 ft | 0 kts | 221° |
| 2026-05-09 10:44 | -42.83653 | 147.50667 | 24 ft | 0 kts | 198° |
| 2026-05-09 10:45 | -42.83657 | 147.50668 | 23 ft | 0 kts | 169° |
| 2026-05-09 10:46 | -42.83727 | 147.50786 | 26 ft | 7 kts | 148° |
| 2026-05-09 10:46 | -42.83775 | 147.50821 | 25 ft | 8 kts | 153° |
| 2026-05-09 10:46 | -42.83832 | 147.50861 | 26 ft | 10 kts | 149° |
| 2026-05-09 10:46 | -42.83839 | 147.50868 | 25 ft | 0 kts | 139° |
| 2026-05-09 10:49 | -42.83841 | 147.50871 | 24 ft | 2 kts | 134° |
| 2026-05-09 10:49 | -42.83855 | 147.50891 | 24 ft | 4 kts | 134° |
| 2026-05-09 10:49 | -42.83868 | 147.50910 | 25 ft | 0 kts | 134° |
| 2026-05-09 10:53 | -42.83870 | 147.50912 | 25 ft | 1 kts | 134° |
| 2026-05-09 10:53 | -42.83885 | 147.50933 | 23 ft | 5 kts | 134° |
| 2026-05-09 10:53 | -42.83915 | 147.50975 | 23 ft | 8 kts | 134° |
| 2026-05-09 10:54 | -42.83948 | 147.51044 | 24 ft | 10 kts | 99° |
| 2026-05-09 10:54 | -42.83912 | 147.51128 | 26 ft | 11 kts | 47° |
| 2026-05-09 10:54 | -42.83852 | 147.51208 | 26 ft | 13 kts | 44° |
| 2026-05-09 10:54 | -42.83822 | 147.51250 | 23 ft | 0 kts | 45° |
| 2026-05-09 10:56 | -42.83816 | 147.51257 | 24 ft | 3 kts | 43° |
| 2026-05-09 10:56 | -42.83792 | 147.51288 | 22 ft | 7 kts | 43° |
| 2026-05-09 10:57 | -42.83765 | 147.51355 | 21 ft | 9 kts | 96° |
| 2026-05-09 10:57 | -42.83806 | 147.51435 | 18 ft | 12 kts | 134° |
| 2026-05-09 10:57 | -42.83872 | 147.51527 | 18 ft | 14 kts | 135° |
| 2026-05-09 10:57 | -42.83945 | 147.51626 | 18 ft | 16 kts | 135° |
| 2026-05-09 10:58 | -42.84029 | 147.51739 | 19 ft | 18 kts | 135° |
| 2026-05-09 10:58 | -42.84114 | 147.51852 | 23 ft | 17 kts | 135° |
| 2026-05-09 10:58 | -42.84202 | 147.51970 | 23 ft | 19 kts | 135° |
| 2026-05-09 10:58 | -42.84294 | 147.52095 | 25 ft | 19 kts | 135° |
| 2026-05-09 10:59 | -42.84398 | 147.52235 | 21 ft | 23 kts | 135° |
| 2026-05-09 10:59 | -42.84534 | 147.52328 | 20 ft | 23 kts | 165° |
| 2026-05-09 10:59 | -42.84587 | 147.52420 | 17 ft | 2 kts | 42° |
| 2026-05-09 10:59 | -42.84565 | 147.52432 | 17 ft | 5 kts | 20° |
| 2026-05-09 11:00 | -42.84541 | 147.52431 | 17 ft | 2 kts | 318° |
| 2026-05-09 11:01 | -42.84540 | 147.52430 | 17 ft | 1 kts | 316° |
| 2026-05-09 11:02 | -42.84508 | 147.52387 | 20 ft | 28 kts | 315° |
| 2026-05-09 11:02 | -42.84167 | 147.51925 | 25 ft | 108 kts | 315° |
| 2026-05-09 11:02 | -42.83464 | 147.50985 | 67 ft | 169 kts | 316° |
| 2026-05-09 11:02 | -42.82563 | 147.49814 | 684 ft | 185 kts | 316° |
| 2026-05-09 11:03 | -42.81628 | 147.48622 | 1743 ft | 184 kts | 313° |
| 2026-05-09 11:03 | -42.80694 | 147.47306 | 2381 ft | 204 kts | 311° |
| 2026-05-09 11:03 | -42.79641 | 147.45823 | 2884 ft | 226 kts | 310° |
| 2026-05-09 11:03 | -42.78517 | 147.44254 | 3486 ft | 238 kts | 310° |
| 2026-05-09 11:04 | -42.77359 | 147.42650 | 4344 ft | 241 kts | 309° |
| 2026-05-09 11:04 | -42.76152 | 147.40988 | 5039 ft | 252 kts | 309° |
| 2026-05-09 11:04 | -42.74902 | 147.39274 | 5915 ft | 256 kts | 310° |
| 2026-05-09 11:04 | -42.73616 | 147.37512 | 6639 ft | 271 kts | 310° |
| 2026-05-09 11:05 | -42.72241 | 147.35629 | 7212 ft | 289 kts | 310° |
| 2026-05-09 11:05 | -42.70817 | 147.33684 | 8094 ft | 289 kts | 310° |
| 2026-05-09 11:05 | -42.69389 | 147.31733 | 9023 ft | 292 kts | 310° |
| 2026-05-09 11:05 | -42.67952 | 147.29771 | 9955 ft | 293 kts | 310° |
| 2026-05-09 11:06 | -42.66487 | 147.27772 | 10627 ft | 306 kts | 310° |
| 2026-05-09 11:06 | -42.64942 | 147.25663 | 10992 ft | 325 kts | 311° |
| 2026-05-09 11:06 | -42.63309 | 147.23441 | 11504 ft | 339 kts | 311° |
| 2026-05-09 11:06 | -42.61630 | 147.21168 | 12268 ft | 342 kts | 314° |
| 2026-05-09 11:07 | -42.59635 | 147.19358 | 13001 ft | 353 kts | 335° |
| 2026-05-09 11:07 | -42.57218 | 147.18640 | 13770 ft | 361 kts | 357° |
| 2026-05-09 11:07 | -42.54747 | 147.19151 | 14436 ft | 368 kts | 19° |
| 2026-05-09 11:07 | -42.52508 | 147.20846 | 15086 ft | 371 kts | 36° |
| 2026-05-09 11:08 | -42.50371 | 147.22854 | 15681 ft | 376 kts | 34° |
| 2026-05-09 11:08 | -42.48198 | 147.24875 | 16326 ft | 379 kts | 35° |
| 2026-05-09 11:08 | -42.46021 | 147.26937 | 16939 ft | 383 kts | 35° |
| 2026-05-09 11:08 | -42.43823 | 147.29010 | 17578 ft | 386 kts | 35° |
| 2026-05-09 11:09 | -42.41607 | 147.31096 | 18151 ft | 391 kts | 35° |
| 2026-05-09 11:09 | -42.39364 | 147.33203 | 18720 ft | 395 kts | 35° |
| 2026-05-09 11:09 | -42.37131 | 147.35300 | 19221 ft | 398 kts | 35° |
| 2026-05-09 11:09 | -42.34799 | 147.37418 | 19737 ft | 401 kts | 28° |
| 2026-05-09 11:10 | -42.32232 | 147.38735 | 20246 ft | 401 kts | 10° |
| 2026-05-09 11:10 | -42.29446 | 147.38966 | 20693 ft | 402 kts | 352° |
| 2026-05-09 11:10 | -42.26704 | 147.38248 | 21171 ft | 402 kts | 339° |
| 2026-05-09 11:10 | -42.24133 | 147.36780 | 21596 ft | 403 kts | 332° |
| 2026-05-09 11:11 | -42.21551 | 147.35209 | 22036 ft | 408 kts | 333° |
| 2026-05-09 11:11 | -42.18956 | 147.33655 | 22541 ft | 410 kts | 333° |
| 2026-05-09 11:11 | -42.16333 | 147.32096 | 23037 ft | 413 kts | 333° |
| 2026-05-09 11:11 | -42.13686 | 147.30528 | 23501 ft | 416 kts | 333° |
| 2026-05-09 11:12 | -42.11026 | 147.28954 | 23951 ft | 419 kts | 333° |
| 2026-05-09 11:12 | -42.08345 | 147.27371 | 24336 ft | 422 kts | 333° |
| 2026-05-09 11:12 | -42.05651 | 147.25778 | 24738 ft | 424 kts | 333° |
| 2026-05-09 11:12 | -42.02944 | 147.24184 | 25100 ft | 427 kts | 333° |
| 2026-05-09 11:13 | -42.00209 | 147.22574 | 25487 ft | 429 kts | 333° |
| 2026-05-09 11:13 | -41.97506 | 147.20977 | 25867 ft | 431 kts | 334° |
| 2026-05-09 11:13 | -41.94746 | 147.19357 | 26237 ft | 434 kts | 334° |
| 2026-05-09 11:13 | -41.91972 | 147.17727 | 26625 ft | 436 kts | 333° |
| 2026-05-09 11:14 | -41.89188 | 147.16094 | 26967 ft | 438 kts | 334° |
| 2026-05-09 11:14 | -41.86382 | 147.14452 | 27334 ft | 440 kts | 334° |
| 2026-05-09 11:14 | -41.83568 | 147.12804 | 27684 ft | 443 kts | 334° |
| 2026-05-09 11:14 | -41.80735 | 147.11146 | 28021 ft | 444 kts | 334° |
| 2026-05-09 11:15 | -41.77899 | 147.09489 | 28399 ft | 445 kts | 334° |
| 2026-05-09 11:15 | -41.75044 | 147.07822 | 28718 ft | 448 kts | 334° |
| 2026-05-09 11:15 | -41.72180 | 147.06151 | 29047 ft | 450 kts | 334° |
| 2026-05-09 11:15 | -41.69300 | 147.04472 | 29365 ft | 452 kts | 334° |
| 2026-05-09 11:16 | -41.66424 | 147.02797 | 29683 ft | 454 kts | 334° |
| 2026-05-09 11:16 | -41.63522 | 147.01109 | 30006 ft | 456 kts | 334° |
| 2026-05-09 11:16 | -41.60604 | 146.99413 | 30289 ft | 458 kts | 334° |
| 2026-05-09 11:16 | -41.57714 | 146.97735 | 30572 ft | 459 kts | 334° |
| 2026-05-09 11:17 | -41.54784 | 146.96036 | 30846 ft | 461 kts | 334° |
| 2026-05-09 11:17 | -41.51825 | 146.94321 | 31119 ft | 462 kts | 334° |
| 2026-05-09 11:17 | -41.48863 | 146.92606 | 31357 ft | 464 kts | 334° |
| 2026-05-09 11:17 | -41.45898 | 146.90892 | 31608 ft | 466 kts | 334° |
| 2026-05-09 11:18 | -41.42921 | 146.89172 | 31872 ft | 467 kts | 334° |
| 2026-05-09 11:18 | -41.39930 | 146.87446 | 32121 ft | 469 kts | 334° |
| 2026-05-09 11:18 | -41.36931 | 146.85717 | 32384 ft | 469 kts | 334° |
| 2026-05-09 11:18 | -41.33941 | 146.83994 | 32649 ft | 471 kts | 334° |
| 2026-05-09 11:19 | -41.30962 | 146.82281 | 32879 ft | 472 kts | 334° |
| 2026-05-09 11:19 | -41.27934 | 146.80540 | 33134 ft | 474 kts | 334° |
| 2026-05-09 11:19 | -41.24900 | 146.78798 | 33346 ft | 476 kts | 334° |
| 2026-05-09 11:19 | -41.21852 | 146.77050 | 33528 ft | 478 kts | 334° |
| 2026-05-09 11:20 | -41.18815 | 146.75309 | 33806 ft | 478 kts | 334° |
| 2026-05-09 11:20 | -41.15750 | 146.73554 | 34080 ft | 479 kts | 334° |
| 2026-05-09 11:20 | -41.12686 | 146.71801 | 34334 ft | 479 kts | 334° |
| 2026-05-09 11:20 | -41.09617 | 146.70048 | 34595 ft | 479 kts | 334° |
| 2026-05-09 11:21 | -41.06553 | 146.68299 | 34841 ft | 479 kts | 334° |
| 2026-05-09 11:21 | -41.03490 | 146.66552 | 35090 ft | 478 kts | 334° |
| 2026-05-09 11:21 | -41.00431 | 146.64809 | 35301 ft | 479 kts | 333° |
| 2026-05-09 11:21 | -40.97419 | 146.63096 | 35467 ft | 480 kts | 333° |
| 2026-05-09 11:22 | -40.94354 | 146.61353 | 35694 ft | 479 kts | 333° |
| 2026-05-09 11:22 | -40.91285 | 146.59611 | 35921 ft | 478 kts | 333° |
| 2026-05-09 11:22 | -40.88230 | 146.57877 | 36143 ft | 478 kts | 333° |
| 2026-05-09 11:22 | -40.85174 | 146.56145 | 36304 ft | 478 kts | 333° |
| 2026-05-09 11:23 | -40.82113 | 146.54413 | 36312 ft | 478 kts | 333° |
| 2026-05-09 11:23 | -40.76020 | 146.50968 | 36300 ft | 477 kts | 333° |
| 2026-05-09 11:24 | -40.69928 | 146.47531 | 36302 ft | 476 kts | 333° |
| 2026-05-09 11:24 | -40.63835 | 146.44101 | 36306 ft | 477 kts | 333° |
| 2026-05-09 11:25 | -40.57723 | 146.40666 | 36312 ft | 477 kts | 333° |
| 2026-05-09 11:25 | -40.51673 | 146.37274 | 36308 ft | 476 kts | 334° |
| 2026-05-09 11:26 | -40.45578 | 146.33862 | 36309 ft | 476 kts | 334° |
| 2026-05-09 11:26 | -40.39484 | 146.30458 | 36311 ft | 476 kts | 334° |
| 2026-05-09 11:27 | -40.33394 | 146.27063 | 36309 ft | 475 kts | 334° |
| 2026-05-09 11:27 | -40.28343 | 146.24253 | 36318 ft | 475 kts | 334° |
| 2026-05-09 11:28 | -40.22254 | 146.20869 | 36319 ft | 475 kts | 334° |
| 2026-05-09 11:28 | -40.16159 | 146.17491 | 36328 ft | 475 kts | 334° |
| 2026-05-09 11:29 | -40.10070 | 146.14121 | 36332 ft | 475 kts | 334° |
| 2026-05-09 11:29 | -40.04022 | 146.10782 | 36334 ft | 476 kts | 334° |
| 2026-05-09 11:30 | -39.97917 | 146.07416 | 36330 ft | 476 kts | 334° |
| 2026-05-09 11:30 | -39.91798 | 146.04051 | 36332 ft | 476 kts | 334° |
| 2026-05-09 11:31 | -39.85688 | 146.00696 | 36346 ft | 476 kts | 334° |
| 2026-05-09 11:31 | -39.79597 | 145.97359 | 36345 ft | 476 kts | 334° |
| 2026-05-09 11:32 | -39.73527 | 145.94039 | 36344 ft | 476 kts | 335° |
| 2026-05-09 11:32 | -39.67411 | 145.90701 | 36351 ft | 476 kts | 334° |
| 2026-05-09 11:33 | -39.61298 | 145.87370 | 36370 ft | 476 kts | 335° |
| 2026-05-09 11:33 | -39.52192 | 145.82421 | 36375 ft | 476 kts | 335° |
| 2026-05-09 11:34 | -39.46076 | 145.79105 | 36360 ft | 476 kts | 335° |
| 2026-05-09 11:34 | -39.39981 | 145.75806 | 36369 ft | 474 kts | 335° |
| 2026-05-09 11:35 | -39.33890 | 145.72516 | 36374 ft | 474 kts | 335° |
| 2026-05-09 11:35 | -39.27803 | 145.69234 | 36379 ft | 474 kts | 335° |
| 2026-05-09 11:36 | -39.21704 | 145.65953 | 36384 ft | 474 kts | 335° |
| 2026-05-09 11:36 | -39.15608 | 145.62678 | 36375 ft | 474 kts | 335° |
| 2026-05-09 11:37 | -39.09520 | 145.59415 | 36386 ft | 475 kts | 335° |
| 2026-05-09 11:37 | -39.03445 | 145.56164 | 36389 ft | 467 kts | 335° |
| 2026-05-09 11:38 | -38.97514 | 145.52996 | 36388 ft | 464 kts | 335° |
| 2026-05-09 11:38 | -38.91558 | 145.49821 | 36384 ft | 463 kts | 336° |
| 2026-05-09 11:39 | -38.85606 | 145.46653 | 36393 ft | 464 kts | 336° |
| 2026-05-09 11:40 | -38.76647 | 145.41897 | 36393 ft | 464 kts | 336° |
| 2026-05-09 11:40 | -38.70669 | 145.38730 | 36400 ft | 467 kts | 336° |
| 2026-05-09 11:41 | -38.64632 | 145.35538 | 36408 ft | 473 kts | 336° |
| 2026-05-09 11:41 | -38.58518 | 145.32311 | 36404 ft | 476 kts | 336° |
| 2026-05-09 11:42 | -38.52403 | 145.29090 | 36401 ft | 475 kts | 336° |
| 2026-05-09 11:42 | -38.46282 | 145.25871 | 36409 ft | 475 kts | 336° |
| 2026-05-09 11:43 | -38.40182 | 145.22669 | 36409 ft | 475 kts | 336° |
| 2026-05-09 11:43 | -38.34067 | 145.19465 | 36408 ft | 475 kts | 336° |
| 2026-05-09 11:44 | -38.27991 | 145.16288 | 36419 ft | 475 kts | 336° |
| 2026-05-09 11:44 | -38.21882 | 145.13099 | 36410 ft | 475 kts | 336° |
| 2026-05-09 11:45 | -38.15786 | 145.09922 | 36417 ft | 475 kts | 336° |
| 2026-05-09 11:45 | -38.09670 | 145.06741 | 36416 ft | 475 kts | 336° |
| 2026-05-09 11:46 | -38.03554 | 145.03565 | 36421 ft | 475 kts | 336° |
| 2026-05-09 11:46 | -37.97432 | 145.00394 | 36415 ft | 475 kts | 337° |
| 2026-05-09 11:47 | -37.91335 | 144.97238 | 36423 ft | 474 kts | 337° |
| 2026-05-09 11:47 | -37.85218 | 144.94080 | 36427 ft | 474 kts | 337° |
| 2026-05-09 11:48 | -37.79150 | 144.90952 | 36427 ft | 474 kts | 337° |
| 2026-05-09 11:48 | -37.73049 | 144.87813 | 36427 ft | 474 kts | 337° |
| 2026-05-09 11:49 | -37.66954 | 144.84612 | 36416 ft | 474 kts | 331° |
| 2026-05-09 11:49 | -37.64255 | 144.82287 | 36433 ft | 469 kts | 319° |
| 2026-05-09 11:49 | -37.61684 | 144.79712 | 36419 ft | 473 kts | 321° |
| 2026-05-09 11:50 | -37.56530 | 144.74551 | 36426 ft | 473 kts | 320° |
| 2026-05-09 11:50 | -37.51420 | 144.69376 | 36425 ft | 473 kts | 320° |
| 2026-05-09 11:51 | -37.46319 | 144.64213 | 36423 ft | 474 kts | 320° |
| 2026-05-09 11:51 | -37.41177 | 144.59018 | 36411 ft | 468 kts | 320° |
| 2026-05-09 11:52 | -37.36133 | 144.53931 | 36409 ft | 463 kts | 320° |
| 2026-05-09 11:52 | -37.31112 | 144.48875 | 36412 ft | 463 kts | 321° |
| 2026-05-09 11:53 | -37.26103 | 144.43843 | 36409 ft | 460 kts | 321° |
| 2026-05-09 11:53 | -37.21135 | 144.38859 | 36412 ft | 461 kts | 321° |
| 2026-05-09 11:54 | -37.16120 | 144.33838 | 36406 ft | 460 kts | 321° |
| 2026-05-09 11:54 | -37.11126 | 144.28844 | 36407 ft | 461 kts | 321° |
| 2026-05-09 11:55 | -37.06112 | 144.23840 | 36410 ft | 461 kts | 321° |
| 2026-05-09 11:56 | -36.91073 | 144.08884 | 36405 ft | 460 kts | 321° |
| 2026-05-09 11:57 | -36.86051 | 144.03905 | 36406 ft | 460 kts | 321° |
| 2026-05-09 11:57 | -36.81064 | 143.98970 | 36400 ft | 460 kts | 321° |
| 2026-05-09 11:58 | -36.76033 | 143.94020 | 36404 ft | 460 kts | 322° |
| 2026-05-09 11:58 | -36.71006 | 143.89080 | 36404 ft | 460 kts | 322° |
| 2026-05-09 11:59 | -36.65975 | 143.84144 | 36404 ft | 460 kts | 322° |
| 2026-05-09 11:59 | -36.60942 | 143.79214 | 36403 ft | 460 kts | 322° |
| 2026-05-09 12:00 | -36.55908 | 143.74294 | 36396 ft | 460 kts | 322° |
| 2026-05-09 12:00 | -36.50872 | 143.69378 | 36404 ft | 461 kts | 322° |
| 2026-05-09 12:01 | -36.45828 | 143.64463 | 36408 ft | 461 kts | 322° |
| 2026-05-09 12:01 | -36.40813 | 143.59585 | 36400 ft | 460 kts | 322° |
| 2026-05-09 12:02 | -36.35765 | 143.54682 | 36400 ft | 460 kts | 322° |
| 2026-05-09 12:02 | -36.30725 | 143.49797 | 36399 ft | 460 kts | 322° |
| 2026-05-09 12:03 | -36.25675 | 143.44910 | 36403 ft | 460 kts | 323° |
| 2026-05-09 12:03 | -36.20630 | 143.40034 | 36400 ft | 460 kts | 323° |
| 2026-05-09 12:04 | -36.15591 | 143.35174 | 36401 ft | 460 kts | 323° |
| 2026-05-09 12:04 | -36.10539 | 143.30310 | 36397 ft | 460 kts | 323° |
| 2026-05-09 12:05 | -36.05486 | 143.25452 | 36393 ft | 460 kts | 323° |
| 2026-05-09 12:05 | -36.00431 | 143.20601 | 36399 ft | 460 kts | 323° |
| 2026-05-09 12:06 | -35.95414 | 143.15794 | 36394 ft | 460 kts | 323° |
| 2026-05-09 12:06 | -35.90355 | 143.10955 | 36396 ft | 460 kts | 323° |
| 2026-05-09 12:07 | -35.85304 | 143.06131 | 36396 ft | 460 kts | 323° |
| 2026-05-09 12:07 | -35.80246 | 143.01309 | 36394 ft | 460 kts | 323° |
| 2026-05-09 12:08 | -35.75199 | 142.96505 | 36397 ft | 459 kts | 324° |
| 2026-05-09 12:08 | -35.70144 | 142.91701 | 36394 ft | 459 kts | 324° |
| 2026-05-09 12:09 | -35.65082 | 142.86899 | 36396 ft | 459 kts | 324° |
| 2026-05-09 12:09 | -35.60014 | 142.82096 | 36395 ft | 459 kts | 324° |
| 2026-05-09 12:10 | -35.49913 | 142.72558 | 36394 ft | 459 kts | 324° |
| 2026-05-09 12:11 | -35.44852 | 142.67788 | 36399 ft | 459 kts | 324° |
| 2026-05-09 12:11 | -35.39779 | 142.63015 | 36396 ft | 459 kts | 324° |
| 2026-05-09 12:12 | -35.34704 | 142.58250 | 36400 ft | 459 kts | 324° |
| 2026-05-09 12:12 | -35.29635 | 142.53495 | 36395 ft | 459 kts | 324° |
| 2026-05-09 12:13 | -35.24560 | 142.48744 | 36397 ft | 459 kts | 325° |
| 2026-05-09 12:13 | -35.19492 | 142.44008 | 36400 ft | 459 kts | 325° |
| 2026-05-09 12:14 | -35.14428 | 142.39282 | 36398 ft | 459 kts | 325° |
| 2026-05-09 12:14 | -35.10204 | 142.35346 | 36401 ft | 459 kts | 325° |
| 2026-05-09 12:15 | -35.05129 | 142.30624 | 36406 ft | 459 kts | 325° |
| 2026-05-09 12:15 | -35.00050 | 142.25905 | 36409 ft | 458 kts | 325° |
| 2026-05-09 12:16 | -34.94988 | 142.21210 | 36398 ft | 458 kts | 325° |
| 2026-05-09 12:16 | -34.89946 | 142.16542 | 36402 ft | 458 kts | 325° |
| 2026-05-09 12:17 | -34.84874 | 142.11852 | 36407 ft | 458 kts | 325° |
| 2026-05-09 12:17 | -34.79804 | 142.07172 | 36403 ft | 458 kts | 325° |
| 2026-05-09 12:18 | -34.74716 | 142.02483 | 36408 ft | 458 kts | 325° |
| 2026-05-09 12:18 | -34.69639 | 141.97811 | 36405 ft | 458 kts | 325° |
| 2026-05-09 12:19 | -34.64563 | 141.93148 | 36399 ft | 458 kts | 325° |
| 2026-05-09 12:19 | -34.59514 | 141.88517 | 36400 ft | 457 kts | 326° |
| 2026-05-09 12:20 | -34.54438 | 141.83868 | 36403 ft | 458 kts | 326° |
| 2026-05-09 12:20 | -34.49352 | 141.79218 | 36413 ft | 457 kts | 326° |
| 2026-05-09 12:21 | -34.44275 | 141.74582 | 36402 ft | 457 kts | 326° |
| 2026-05-09 12:21 | -34.39195 | 141.69952 | 36402 ft | 457 kts | 326° |
| 2026-05-09 12:22 | -34.34095 | 141.65310 | 36403 ft | 457 kts | 326° |
| 2026-05-09 12:22 | -34.29014 | 141.60693 | 36403 ft | 457 kts | 326° |
| 2026-05-09 12:23 | -34.23958 | 141.56106 | 36406 ft | 457 kts | 326° |
| 2026-05-09 12:23 | -34.18874 | 141.51500 | 36406 ft | 457 kts | 326° |
| 2026-05-09 12:24 | -34.13788 | 141.46900 | 36406 ft | 457 kts | 326° |
| 2026-05-09 12:24 | -34.08710 | 141.42313 | 36405 ft | 456 kts | 326° |
| 2026-05-09 12:25 | -34.03620 | 141.37724 | 36405 ft | 456 kts | 326° |
| 2026-05-09 12:25 | -33.98536 | 141.33146 | 36415 ft | 456 kts | 326° |
| 2026-05-09 12:26 | -33.93464 | 141.28586 | 36405 ft | 455 kts | 326° |
| 2026-05-09 12:26 | -33.88383 | 141.24026 | 36406 ft | 455 kts | 326° |
| 2026-05-09 12:27 | -33.83301 | 141.19472 | 36406 ft | 455 kts | 326° |
| 2026-05-09 12:27 | -33.78250 | 141.14950 | 36406 ft | 455 kts | 326° |
| 2026-05-09 12:28 | -33.73177 | 141.10415 | 36415 ft | 455 kts | 326° |
| 2026-05-09 12:28 | -33.68104 | 141.05887 | 36404 ft | 454 kts | 326° |
| 2026-05-09 12:29 | -33.63029 | 141.01372 | 36407 ft | 454 kts | 326° |
| 2026-05-09 12:29 | -33.57932 | 140.96870 | 36406 ft | 454 kts | 326° |
| 2026-05-09 12:30 | -33.52847 | 140.92380 | 36407 ft | 454 kts | 326° |
| 2026-05-09 12:30 | -33.45228 | 140.85665 | 36412 ft | 452 kts | 325° |
| 2026-05-09 12:31 | -33.37633 | 140.78986 | 36409 ft | 452 kts | 325° |
| 2026-05-09 12:32 | -33.32594 | 140.74562 | 36406 ft | 452 kts | 325° |
| 2026-05-09 12:32 | -33.27515 | 140.70110 | 36409 ft | 452 kts | 325° |
| 2026-05-09 12:33 | -33.22441 | 140.65669 | 36411 ft | 452 kts | 326° |
| 2026-05-09 12:33 | -33.17397 | 140.61261 | 36419 ft | 437 kts | 325° |
| 2026-05-09 12:33 | -33.14983 | 140.59153 | 36424 ft | 424 kts | 325° |
| 2026-05-09 12:34 | -33.12611 | 140.57084 | 36411 ft | 420 kts | 325° |
| 2026-05-09 12:34 | -33.07931 | 140.53005 | 36410 ft | 419 kts | 325° |
| 2026-05-09 12:35 | -33.03209 | 140.48896 | 36410 ft | 420 kts | 325° |
| 2026-05-09 12:35 | -32.98491 | 140.44794 | 36411 ft | 420 kts | 325° |
| 2026-05-09 12:36 | -32.93778 | 140.40703 | 36420 ft | 419 kts | 325° |
| 2026-05-09 12:36 | -32.89066 | 140.36619 | 36415 ft | 418 kts | 325° |
| 2026-05-09 12:37 | -32.84369 | 140.32554 | 36408 ft | 417 kts | 325° |
| 2026-05-09 12:37 | -32.79679 | 140.28498 | 36415 ft | 417 kts | 325° |
| 2026-05-09 12:38 | -32.74994 | 140.24454 | 36414 ft | 417 kts | 325° |
| 2026-05-09 12:38 | -32.70303 | 140.20409 | 36415 ft | 417 kts | 325° |
| 2026-05-09 12:39 | -32.65641 | 140.16395 | 36409 ft | 416 kts | 325° |
| 2026-05-09 12:39 | -32.60957 | 140.12367 | 36416 ft | 416 kts | 325° |
| 2026-05-09 12:40 | -32.56271 | 140.08343 | 36415 ft | 415 kts | 324° |
| 2026-05-09 12:40 | -32.51597 | 140.04334 | 36414 ft | 414 kts | 324° |
| 2026-05-09 12:41 | -32.46932 | 140.00338 | 36413 ft | 414 kts | 324° |
| 2026-05-09 12:41 | -32.42255 | 139.96337 | 36419 ft | 414 kts | 324° |
| 2026-05-09 12:42 | -32.37583 | 139.92346 | 36413 ft | 414 kts | 324° |
| 2026-05-09 12:42 | -32.32952 | 139.88394 | 36415 ft | 414 kts | 324° |
| 2026-05-09 12:43 | -32.28283 | 139.84416 | 36410 ft | 413 kts | 324° |
| 2026-05-09 12:43 | -32.23585 | 139.80418 | 36410 ft | 419 kts | 324° |
| 2026-05-09 12:44 | -32.18801 | 139.76352 | 36410 ft | 427 kts | 324° |
| 2026-05-09 12:44 | -32.13936 | 139.72223 | 36412 ft | 435 kts | 324° |
| 2026-05-09 12:45 | -32.09013 | 139.68051 | 36412 ft | 442 kts | 324° |
| 2026-05-09 12:45 | -32.03975 | 139.63786 | 36410 ft | 449 kts | 324° |
| 2026-05-09 12:46 | -31.98858 | 139.59461 | 36410 ft | 453 kts | 324° |
| 2026-05-09 12:46 | -31.93738 | 139.55139 | 36408 ft | 452 kts | 324° |
| 2026-05-09 12:47 | -31.88628 | 139.50832 | 36412 ft | 452 kts | 324° |
| 2026-05-09 12:47 | -31.83522 | 139.46534 | 36408 ft | 451 kts | 324° |
| 2026-05-09 12:48 | -31.78412 | 139.42239 | 36408 ft | 451 kts | 324° |
| 2026-05-09 12:48 | -31.73338 | 139.37980 | 36409 ft | 451 kts | 324° |
| 2026-05-09 12:49 | -31.68225 | 139.33694 | 36411 ft | 451 kts | 324° |
| 2026-05-09 12:49 | -31.63115 | 139.29416 | 36406 ft | 450 kts | 324° |
| 2026-05-09 12:50 | -31.58019 | 139.25157 | 36405 ft | 449 kts | 324° |
| 2026-05-09 12:50 | -31.52929 | 139.20908 | 36404 ft | 449 kts | 324° |
| 2026-05-09 12:51 | -31.47831 | 139.16658 | 36404 ft | 449 kts | 324° |
| 2026-05-09 12:51 | -31.42735 | 139.12415 | 36404 ft | 449 kts | 324° |
| 2026-05-09 12:52 | -31.37643 | 139.08181 | 36405 ft | 449 kts | 324° |
| 2026-05-09 12:52 | -31.32569 | 139.03969 | 36404 ft | 448 kts | 324° |
| 2026-05-09 12:53 | -31.27493 | 138.99760 | 36403 ft | 447 kts | 324° |
| 2026-05-09 12:53 | -31.22417 | 138.95557 | 36402 ft | 447 kts | 324° |
| 2026-05-09 12:54 | -31.17344 | 138.91363 | 36404 ft | 447 kts | 324° |
| 2026-05-09 12:54 | -31.12266 | 138.87169 | 36403 ft | 447 kts | 324° |
| 2026-05-09 12:55 | -31.07187 | 138.82980 | 36403 ft | 447 kts | 324° |
| 2026-05-09 12:55 | -31.02112 | 138.78800 | 36402 ft | 445 kts | 323° |
| 2026-05-09 12:56 | -30.97060 | 138.74646 | 36403 ft | 444 kts | 323° |
| 2026-05-09 12:56 | -30.92021 | 138.70506 | 36401 ft | 444 kts | 323° |
| 2026-05-09 12:57 | -30.87002 | 138.66388 | 36405 ft | 444 kts | 323° |
| 2026-05-09 12:57 | -30.81950 | 138.62248 | 36400 ft | 444 kts | 323° |
| 2026-05-09 12:58 | -30.76894 | 138.58110 | 36399 ft | 444 kts | 323° |
| 2026-05-09 12:58 | -30.71854 | 138.53990 | 36399 ft | 444 kts | 324° |
| 2026-05-09 12:59 | -30.66797 | 138.49862 | 36394 ft | 444 kts | 324° |
| 2026-05-09 12:59 | -30.62597 | 138.46437 | 36394 ft | 444 kts | 324° |
| 2026-05-09 13:00 | -30.57413 | 138.42521 | 36407 ft | 444 kts | 327° |
| 2026-05-09 13:00 | -30.52177 | 138.38743 | 36387 ft | 443 kts | 327° |
| 2026-05-09 13:01 | -30.46091 | 138.34329 | 36389 ft | 444 kts | 327° |
| 2026-05-09 13:01 | -30.41734 | 138.31171 | 36387 ft | 443 kts | 326° |
| 2026-05-09 13:02 | -30.36520 | 138.27396 | 36384 ft | 441 kts | 326° |
| 2026-05-09 13:02 | -30.31323 | 138.23638 | 36384 ft | 441 kts | 326° |
| 2026-05-09 13:03 | -30.26111 | 138.19874 | 36384 ft | 441 kts | 326° |
| 2026-05-09 13:03 | -30.20906 | 138.16120 | 36385 ft | 441 kts | 326° |
| 2026-05-09 13:04 | -30.15735 | 138.12396 | 36383 ft | 441 kts | 326° |
| 2026-05-09 13:04 | -30.10501 | 138.08630 | 36381 ft | 439 kts | 326° |
| 2026-05-09 13:05 | -30.05364 | 138.04939 | 36377 ft | 439 kts | 326° |
| 2026-05-09 13:05 | -30.00176 | 138.01216 | 36377 ft | 439 kts | 326° |
| 2026-05-09 13:06 | -29.94994 | 137.97502 | 36379 ft | 439 kts | 326° |
| 2026-05-09 13:06 | -29.89806 | 137.93788 | 36371 ft | 439 kts | 326° |
| 2026-05-09 13:07 | -29.84616 | 137.90078 | 36371 ft | 439 kts | 326° |
| 2026-05-09 13:07 | -29.79444 | 137.86384 | 36371 ft | 436 kts | 326° |
| 2026-05-09 13:08 | -29.74279 | 137.82701 | 36373 ft | 436 kts | 326° |
| 2026-05-09 13:08 | -29.69109 | 137.79018 | 36371 ft | 437 kts | 326° |
| 2026-05-09 13:09 | -29.63977 | 137.75367 | 36373 ft | 437 kts | 326° |
| 2026-05-09 13:09 | -29.58799 | 137.71687 | 36365 ft | 437 kts | 326° |
| 2026-05-09 13:10 | -29.53618 | 137.68010 | 36363 ft | 437 kts | 326° |
| 2026-05-09 13:10 | -29.48457 | 137.64352 | 36362 ft | 435 kts | 326° |
| 2026-05-09 13:11 | -29.43308 | 137.60707 | 36363 ft | 435 kts | 326° |
| 2026-05-09 13:11 | -29.38143 | 137.57055 | 36363 ft | 435 kts | 326° |
| 2026-05-09 13:12 | -29.33017 | 137.53434 | 36362 ft | 435 kts | 326° |
| 2026-05-09 13:12 | -29.27864 | 137.49799 | 36360 ft | 435 kts | 326° |
| 2026-05-09 13:13 | -29.22708 | 137.46166 | 36358 ft | 434 kts | 326° |
| 2026-05-09 13:13 | -29.17563 | 137.42545 | 36360 ft | 434 kts | 326° |
| 2026-05-09 13:14 | -29.12414 | 137.38926 | 36358 ft | 434 kts | 326° |
| 2026-05-09 13:16 | -28.91851 | 137.24515 | 36356 ft | 432 kts | 326° |
| 2026-05-09 13:16 | -28.86719 | 137.20929 | 36358 ft | 432 kts | 326° |
| 2026-05-09 13:17 | -28.81592 | 137.17350 | 36358 ft | 432 kts | 326° |
| 2026-05-09 13:17 | -28.76458 | 137.13771 | 36354 ft | 432 kts | 326° |
| 2026-05-09 13:18 | -28.71322 | 137.10195 | 36353 ft | 432 kts | 326° |
| 2026-05-09 13:18 | -28.66185 | 137.06622 | 36342 ft | 432 kts | 326° |
| 2026-05-09 13:19 | -28.61110 | 137.03096 | 36350 ft | 430 kts | 326° |
| 2026-05-09 13:19 | -28.55996 | 136.99548 | 36353 ft | 430 kts | 326° |
| 2026-05-09 13:20 | -28.50889 | 136.96008 | 36351 ft | 430 kts | 326° |
| 2026-05-09 13:20 | -28.45776 | 136.92468 | 36352 ft | 431 kts | 326° |
| 2026-05-09 13:21 | -28.40660 | 136.88930 | 36352 ft | 431 kts | 326° |
| 2026-05-09 13:21 | -28.35543 | 136.85394 | 36348 ft | 431 kts | 326° |
| 2026-05-09 13:22 | -28.30442 | 136.81874 | 36349 ft | 428 kts | 326° |
| 2026-05-09 13:22 | -28.25376 | 136.78382 | 36352 ft | 428 kts | 326° |
| 2026-05-09 13:23 | -28.12569 | 136.69645 | 36352 ft | 429 kts | 326° |
| 2026-05-09 13:24 | -28.07488 | 136.66188 | 36351 ft | 429 kts | 326° |
| 2026-05-09 13:24 | -28.02356 | 136.62702 | 36347 ft | 427 kts | 326° |
| 2026-05-09 13:25 | -27.97286 | 136.59261 | 36352 ft | 427 kts | 326° |
| 2026-05-09 13:26 | -27.89645 | 136.54083 | 36351 ft | 427 kts | 326° |
| 2026-05-09 13:26 | -27.84537 | 136.50626 | 36352 ft | 427 kts | 326° |
| 2026-05-09 13:27 | -27.79463 | 136.47195 | 36351 ft | 427 kts | 326° |
| 2026-05-09 13:27 | -27.74366 | 136.43754 | 36354 ft | 428 kts | 326° |
| 2026-05-09 13:28 | -27.69262 | 136.40311 | 36356 ft | 428 kts | 326° |
| 2026-05-09 13:28 | -27.64146 | 136.36863 | 36354 ft | 428 kts | 326° |
| 2026-05-09 13:29 | -27.59030 | 136.33420 | 36356 ft | 429 kts | 326° |
| 2026-05-09 13:29 | -27.53913 | 136.29980 | 36354 ft | 429 kts | 326° |
| 2026-05-09 13:30 | -27.48778 | 136.26531 | 36354 ft | 429 kts | 326° |
| 2026-05-09 13:30 | -27.43699 | 136.23124 | 36357 ft | 426 kts | 326° |
| 2026-05-09 13:31 | -27.38606 | 136.19711 | 36361 ft | 426 kts | 326° |
| 2026-05-09 13:31 | -27.33513 | 136.16302 | 36356 ft | 426 kts | 326° |
| 2026-05-09 13:32 | -27.28406 | 136.12887 | 36361 ft | 428 kts | 326° |
| 2026-05-09 13:32 | -27.20730 | 136.07762 | 36358 ft | 427 kts | 326° |
| 2026-05-09 13:33 | -27.15624 | 136.04356 | 36359 ft | 426 kts | 326° |
| 2026-05-09 13:33 | -27.10543 | 136.00972 | 36359 ft | 425 kts | 326° |
| 2026-05-09 13:34 | -27.05482 | 135.97604 | 36357 ft | 425 kts | 326° |
| 2026-05-09 13:34 | -27.00390 | 135.94219 | 36354 ft | 426 kts | 326° |
| 2026-05-09 13:35 | -26.95290 | 135.90833 | 36352 ft | 426 kts | 326° |
| 2026-05-09 13:35 | -26.90187 | 135.87448 | 36356 ft | 426 kts | 326° |
| 2026-05-09 13:36 | -26.85078 | 135.84063 | 36355 ft | 425 kts | 326° |
| 2026-05-09 13:36 | -26.79985 | 135.80691 | 36349 ft | 425 kts | 326° |
| 2026-05-09 13:37 | -26.74933 | 135.77350 | 36360 ft | 425 kts | 326° |
| 2026-05-09 13:37 | -26.69831 | 135.73980 | 36352 ft | 426 kts | 326° |
| 2026-05-09 13:38 | -26.64975 | 135.70268 | 36359 ft | 424 kts | 322° |
| 2026-05-09 13:38 | -26.60141 | 135.66490 | 36343 ft | 424 kts | 322° |
| 2026-05-09 13:39 | -26.55296 | 135.62733 | 36350 ft | 422 kts | 322° |
| 2026-05-09 13:39 | -26.50468 | 135.58994 | 36346 ft | 422 kts | 322° |
| 2026-05-09 13:40 | -26.45636 | 135.55258 | 36352 ft | 423 kts | 322° |
| 2026-05-09 13:40 | -26.40794 | 135.51516 | 36351 ft | 423 kts | 322° |
| 2026-05-09 13:41 | -26.35977 | 135.47798 | 36347 ft | 423 kts | 322° |
| 2026-05-09 13:41 | -26.31129 | 135.44060 | 36352 ft | 423 kts | 322° |
| 2026-05-09 13:42 | -26.26291 | 135.40334 | 36336 ft | 423 kts | 322° |
| 2026-05-09 13:42 | -26.21459 | 135.36616 | 36348 ft | 422 kts | 322° |
| 2026-05-09 13:43 | -26.16626 | 135.32902 | 36353 ft | 422 kts | 322° |
| 2026-05-09 13:43 | -26.11784 | 135.29184 | 36343 ft | 422 kts | 322° |
| 2026-05-09 13:44 | -26.06951 | 135.25477 | 36343 ft | 422 kts | 322° |
| 2026-05-09 13:44 | -26.02120 | 135.21775 | 36343 ft | 422 kts | 322° |
| 2026-05-09 13:45 | -25.97276 | 135.18067 | 36343 ft | 422 kts | 322° |
| 2026-05-09 13:45 | -25.92447 | 135.14374 | 36343 ft | 421 kts | 322° |
| 2026-05-09 13:46 | -25.88433 | 135.11308 | 36344 ft | 421 kts | 322° |
| 2026-05-09 13:46 | -25.83611 | 135.07627 | 36344 ft | 421 kts | 322° |
| 2026-05-09 13:47 | -25.78788 | 135.03949 | 36342 ft | 421 kts | 322° |
| 2026-05-09 13:47 | -25.73982 | 135.00288 | 36345 ft | 421 kts | 322° |
| 2026-05-09 13:48 | -25.69145 | 134.96607 | 36335 ft | 423 kts | 322° |
| 2026-05-09 13:48 | -25.64302 | 134.92925 | 36340 ft | 421 kts | 322° |
| 2026-05-09 13:49 | -25.59469 | 134.89255 | 36341 ft | 421 kts | 322° |
| 2026-05-09 13:49 | -25.54633 | 134.85586 | 36341 ft | 421 kts | 322° |
| 2026-05-09 13:50 | -25.49800 | 134.81922 | 36334 ft | 420 kts | 322° |
| 2026-05-09 13:50 | -25.44974 | 134.78268 | 36338 ft | 420 kts | 322° |
| 2026-05-09 13:51 | -25.40161 | 134.74627 | 36339 ft | 420 kts | 322° |
| 2026-05-09 13:51 | -25.35331 | 134.70977 | 36338 ft | 420 kts | 322° |
| 2026-05-09 13:52 | -25.30541 | 134.67361 | 36336 ft | 419 kts | 322° |
| 2026-05-09 13:52 | -25.25734 | 134.63735 | 36339 ft | 418 kts | 322° |
| 2026-05-09 13:53 | -25.20931 | 134.60116 | 36340 ft | 419 kts | 322° |
| 2026-05-09 13:53 | -25.16102 | 134.56481 | 36335 ft | 420 kts | 322° |
| 2026-05-09 13:54 | -25.11275 | 134.52851 | 36333 ft | 420 kts | 322° |
| 2026-05-09 13:54 | -25.06442 | 134.49220 | 36336 ft | 420 kts | 322° |
| 2026-05-09 13:55 | -25.01621 | 134.45601 | 36339 ft | 420 kts | 322° |
| 2026-05-09 13:55 | -24.96788 | 134.41977 | 36338 ft | 419 kts | 322° |
| 2026-05-09 13:56 | -24.91961 | 134.38361 | 36338 ft | 420 kts | 322° |
| 2026-05-09 13:56 | -24.87153 | 134.34763 | 36331 ft | 420 kts | 322° |
| 2026-05-09 13:57 | -24.82346 | 134.31169 | 36315 ft | 417 kts | 322° |
| 2026-05-09 13:57 | -24.77556 | 134.27590 | 36334 ft | 415 kts | 322° |
| 2026-05-09 13:58 | -24.72753 | 134.24006 | 35202 ft | 425 kts | 323° |
| 2026-05-09 13:58 | -24.70334 | 134.22204 | 34669 ft | 415 kts | 323° |
| 2026-05-09 13:58 | -24.67943 | 134.20422 | 33527 ft | 416 kts | 323° |
| 2026-05-09 13:59 | -24.65536 | 134.18629 | 32277 ft | 418 kts | 323° |
| 2026-05-09 13:59 | -24.63154 | 134.16854 | 31059 ft | 420 kts | 323° |
| 2026-05-09 13:59 | -24.60744 | 134.15060 | 29787 ft | 421 kts | 324° |
| 2026-05-09 13:59 | -24.58317 | 134.13255 | 28426 ft | 422 kts | 324° |
| 2026-05-09 14:00 | -24.55883 | 134.11444 | 27109 ft | 421 kts | 324° |
| 2026-05-09 14:00 | -24.54279 | 134.10252 | 26243 ft | 423 kts | 324° |
| 2026-05-09 14:00 | -24.51003 | 134.07818 | 24696 ft | 425 kts | 324° |
| 2026-05-09 14:00 | -24.48543 | 134.05991 | 23663 ft | 425 kts | 324° |
| 2026-05-09 14:01 | -24.46102 | 134.04180 | 22442 ft | 421 kts | 324° |
| 2026-05-09 14:01 | -24.43689 | 134.02390 | 21328 ft | 416 kts | 325° |
| 2026-05-09 14:01 | -24.41288 | 134.00611 | 20174 ft | 420 kts | 325° |
| 2026-05-09 14:01 | -24.38863 | 133.98813 | 19433 ft | 421 kts | 326° |
| 2026-05-09 14:02 | -24.36453 | 133.97027 | 18883 ft | 412 kts | 326° |
| 2026-05-09 14:02 | -24.34106 | 133.95289 | 17870 ft | 406 kts | 326° |
| 2026-05-09 14:02 | -24.31769 | 133.93560 | 16855 ft | 402 kts | 326° |
| 2026-05-09 14:02 | -24.29469 | 133.91858 | 15895 ft | 397 kts | 326° |
| 2026-05-09 14:03 | -24.27188 | 133.90171 | 14966 ft | 393 kts | 326° |
| 2026-05-09 14:03 | -24.24929 | 133.88502 | 14075 ft | 387 kts | 326° |
| 2026-05-09 14:03 | -24.22761 | 133.86899 | 13450 ft | 373 kts | 326° |
| 2026-05-09 14:03 | -24.20669 | 133.85354 | 13256 ft | 352 kts | 326° |
| 2026-05-09 14:04 | -24.18669 | 133.83877 | 13064 ft | 342 kts | 326° |
| 2026-05-09 14:04 | -24.16713 | 133.82433 | 12833 ft | 335 kts | 326° |
| 2026-05-09 14:04 | -24.14801 | 133.81023 | 12604 ft | 327 kts | 326° |
| 2026-05-09 14:04 | -24.12931 | 133.79643 | 12394 ft | 320 kts | 326° |
| 2026-05-09 14:05 | -24.11117 | 133.78306 | 12195 ft | 308 kts | 326° |
| 2026-05-09 14:05 | -24.09389 | 133.77032 | 12026 ft | 291 kts | 326° |
| 2026-05-09 14:05 | -24.07747 | 133.75822 | 11923 ft | 279 kts | 326° |
| 2026-05-09 14:05 | -24.06143 | 133.74641 | 11826 ft | 277 kts | 326° |
| 2026-05-09 14:06 | -24.04549 | 133.73467 | 11634 ft | 276 kts | 326° |
| 2026-05-09 14:06 | -24.02964 | 133.72300 | 11476 ft | 275 kts | 326° |
| 2026-05-09 14:06 | -24.01371 | 133.71128 | 11320 ft | 275 kts | 326° |
| 2026-05-09 14:06 | -23.99787 | 133.69962 | 11175 ft | 274 kts | 326° |
| 2026-05-09 14:07 | -23.98212 | 133.68804 | 11042 ft | 274 kts | 326° |
| 2026-05-09 14:07 | -23.96648 | 133.67654 | 10870 ft | 275 kts | 326° |
| 2026-05-09 14:07 | -23.95070 | 133.66494 | 10609 ft | 273 kts | 325° |
| 2026-05-09 14:07 | -23.93498 | 133.65338 | 10394 ft | 272 kts | 325° |
| 2026-05-09 14:08 | -23.91900 | 133.64243 | 10226 ft | 268 kts | 329° |
| 2026-05-09 14:08 | -23.90295 | 133.63304 | 10034 ft | 255 kts | 333° |
| 2026-05-09 14:08 | -23.88705 | 133.62525 | 9774 ft | 246 kts | 337° |
| 2026-05-09 14:08 | -23.87125 | 133.61883 | 9486 ft | 238 kts | 341° |
| 2026-05-09 14:09 | -23.85561 | 133.61371 | 9248 ft | 234 kts | 345° |
| 2026-05-09 14:09 | -23.83967 | 133.60974 | 9023 ft | 234 kts | 349° |
| 2026-05-09 14:09 | -23.82356 | 133.60691 | 8760 ft | 234 kts | 353° |
| 2026-05-09 14:09 | -23.80730 | 133.60523 | 8502 ft | 235 kts | 356° |
| 2026-05-09 14:10 | -23.77476 | 133.60535 | 8006 ft | 234 kts | 5° |
| 2026-05-09 14:10 | -23.75884 | 133.60707 | 7752 ft | 234 kts | 9° |
| 2026-05-09 14:10 | -23.74281 | 133.61000 | 7572 ft | 233 kts | 13° |
| 2026-05-09 14:11 | -23.72707 | 133.61405 | 7452 ft | 233 kts | 17° |
| 2026-05-09 14:11 | -23.71157 | 133.61919 | 7356 ft | 233 kts | 20° |
| 2026-05-09 14:11 | -23.69684 | 133.62617 | 7224 ft | 229 kts | 34° |
| 2026-05-09 14:11 | -23.68598 | 133.63822 | 6929 ft | 220 kts | 63° |
| 2026-05-09 14:12 | -23.68234 | 133.65377 | 6631 ft | 206 kts | 92° |
| 2026-05-09 14:12 | -23.68442 | 133.66816 | 6390 ft | 181 kts | 106° |
| 2026-05-09 14:12 | -23.68873 | 133.68055 | 6180 ft | 171 kts | 115° |
| 2026-05-09 14:12 | -23.69391 | 133.69186 | 5966 ft | 161 kts | 117° |
| 2026-05-09 14:13 | -23.69927 | 133.70261 | 5757 ft | 164 kts | 118° |
| 2026-05-09 14:14 | -23.73805 | 133.77575 | 4276 ft | 138 kts | 118° |
| 2026-05-09 14:15 | -23.74286 | 133.78471 | 4079 ft | 135 kts | 118° |
| 2026-05-09 14:15 | -23.74752 | 133.79341 | 3900 ft | 134 kts | 118° |
| 2026-05-09 14:15 | -23.75225 | 133.80225 | 3721 ft | 133 kts | 118° |
| 2026-05-09 14:15 | -23.75686 | 133.81086 | 3548 ft | 133 kts | 119° |
| 2026-05-09 14:16 | -23.76152 | 133.81954 | 3337 ft | 134 kts | 119° |
| 2026-05-09 14:16 | -23.76629 | 133.82850 | 3122 ft | 137 kts | 121° |
| 2026-05-09 14:16 | -23.77112 | 133.83751 | 2987 ft | 139 kts | 121° |
| 2026-05-09 14:16 | -23.77600 | 133.84662 | 2783 ft | 143 kts | 120° |
| 2026-05-09 14:17 | -23.78107 | 133.85613 | 2619 ft | 146 kts | 121° |
| 2026-05-09 14:17 | -23.78622 | 133.86573 | 2367 ft | 146 kts | 120° |
| 2026-05-09 14:17 | -23.79138 | 133.87535 | 2146 ft | 147 kts | 120° |
| 2026-05-09 14:17 | -23.79640 | 133.88490 | 1978 ft | 144 kts | 120° |
| 2026-05-09 14:18 | -23.80143 | 133.89425 | 1800 ft | 141 kts | 121° |
| 2026-05-09 14:18 | -23.80546 | 133.90156 | 1785 ft | 52 kts | 122° |
| 2026-05-09 14:18 | -23.80587 | 133.90327 | 1785 ft | 11 kts | 31° |
| 2026-05-09 14:18 | -23.80534 | 133.90359 | 1784 ft | 1 kts | 28° |
| 2026-05-09 14:19 | -23.80518 | 133.90369 | 1784 ft | 4 kts | 28° |
| 2026-05-09 14:19 | -23.80512 | 133.90372 | 1784 ft | 1 kts | 28° |
| 2026-05-09 14:19 | -23.80485 | 133.90377 | 1784 ft | 8 kts | 355° |
| 2026-05-09 14:19 | -23.80417 | 133.90322 | 1784 ft | 16 kts | 295° |
| 2026-05-09 14:20 | -23.80374 | 133.90198 | 1785 ft | 14 kts | 304° |
| 2026-05-09 14:20 | -23.80352 | 133.90185 | 1785 ft | 0 kts | 23° |
| 2026-05-09 14:20 | -23.80351 | 133.90190 | 1784 ft | 2 kts | 68° |
| 2026-05-09 14:21 | -23.80337 | 133.90234 | 1784 ft | 0 kts | 72° |